Albion, Oklahoma
Current Conditions -  °F | °C
As of 10:35 AM on Friday 24 Oct 2014 (Local Time) from KRKR Reporting Station
Clear Clear  
Wind Chill: 62°   Ceiling: Unl
Heat Index: 62°   Visibility: 10mi
Dew Point: 54°   Wind: 5mph
Humidity: 75%   Direction: 190°S
Pressure: 30.17"   Gusts: NA
Location:  34.66°N, 95.1°W
Report Text: KRKR 241535Z AUTO 19004KT 10SM CLR 17/12 A3017 RMK AO2 T01680124
Loading
Personal Weather Stations






























Interactive Weather Map New forecast layout! Learn more

10-Day Weather Forecast

Advertisements
Track Severe Weather on mobile